createdAt,value
2017-11-26T00:01:18.620Z,2.86
2017-11-26T00:03:46.935Z,2.90
2017-11-26T00:06:16.010Z,2.88
2017-11-26T00:08:44.553Z,2.92
2017-11-26T00:11:12.890Z,2.93
2017-11-26T00:13:41.974Z,2.91
2017-11-26T00:16:10.295Z,2.92
2017-11-26T00:18:38.620Z,2.93
2017-11-26T00:21:06.930Z,2.89
2017-11-26T00:23:35.256Z,2.97
2017-11-26T00:26:03.559Z,2.96
2017-11-26T00:28:31.994Z,2.96
2017-11-26T00:31:00.308Z,2.93
2017-11-26T00:33:28.623Z,2.92
2017-11-26T00:35:57.032Z,2.94
2017-11-26T00:38:25.351Z,2.97
2017-11-26T00:40:53.690Z,2.96
2017-11-26T00:43:22.060Z,2.95
2017-11-26T00:45:50.391Z,2.94
2017-11-26T00:48:18.751Z,2.91
2017-11-26T00:50:47.179Z,2.87
2017-11-26T00:53:15.564Z,2.86
2017-11-26T00:55:43.886Z,2.83
2017-11-26T00:58:12.275Z,2.75
2017-11-26T01:00:40.696Z,2.67
2017-11-26T01:03:09.091Z,2.62
2017-11-26T01:05:37.502Z,2.57
2017-11-26T01:08:05.812Z,2.54
2017-11-26T01:10:34.963Z,2.56
2017-11-26T01:13:03.331Z,2.54
2017-11-26T01:15:31.709Z,2.58
2017-11-26T01:18:00.064Z,2.61
2017-11-26T01:20:28.452Z,2.65
2017-11-26T01:22:56.941Z,2.72
2017-11-26T01:25:25.504Z,2.76
2017-11-26T01:27:53.878Z,2.79
2017-11-26T01:30:23.088Z,2.77
2017-11-26T01:32:51.396Z,2.75
2017-11-26T01:35:19.755Z,2.72
2017-11-26T01:37:48.163Z,2.66
2017-11-26T01:40:16.568Z,2.66
2017-11-26T01:42:44.992Z,2.66
2017-11-26T01:45:13.367Z,2.63
2017-11-26T01:47:41.717Z,2.67
2017-11-26T01:50:10.904Z,2.62
2017-11-26T01:52:39.300Z,2.65
2017-11-26T01:55:08.507Z,2.83
2017-11-26T01:57:36.813Z,2.87
2017-11-26T02:00:05.141Z,2.86
2017-11-26T02:02:34.218Z,2.85
2017-11-26T02:05:02.534Z,2.82
2017-11-26T02:07:31.606Z,2.77
2017-11-26T02:09:59.924Z,2.69
2017-11-26T02:12:28.288Z,2.64
2017-11-26T02:14:56.620Z,2.56
2017-11-26T02:17:24.939Z,2.64
2017-11-26T02:19:54.086Z,2.67
2017-11-26T02:22:22.388Z,2.67
2017-11-26T02:24:50.764Z,2.69
2017-11-26T02:27:19.159Z,2.55
2017-11-26T02:29:48.267Z,2.42
2017-11-26T02:32:34.544Z,2.28
2017-11-26T02:35:21.368Z,2.10
2017-11-26T02:37:50.452Z,2.10
2017-11-26T02:40:19.536Z,2.05
2017-11-26T02:42:47.909Z,1.99
2017-11-26T02:45:16.220Z,1.98
2017-11-26T02:47:45.362Z,1.92
2017-11-26T02:50:13.695Z,1.79
2017-11-26T02:52:42.018Z,1.74
2017-11-26T02:55:10.329Z,1.78
2017-11-26T02:57:39.420Z,1.76
2017-11-26T03:00:07.751Z,1.84
2017-11-26T03:02:36.057Z,2.06
2017-11-26T03:05:04.375Z,2.28
2017-11-26T03:07:33.470Z,2.38
2017-11-26T03:10:01.791Z,2.46
2017-11-26T03:12:30.107Z,2.56
2017-11-26T03:14:59.192Z,2.59
2017-11-26T03:17:27.531Z,2.52
2017-11-26T03:19:55.851Z,2.43
2017-11-26T03:22:24.167Z,2.40
2017-11-26T03:24:52.508Z,2.36
2017-11-26T03:27:20.858Z,2.32
2017-11-26T03:29:49.209Z,2.34
2017-11-26T03:32:17.542Z,2.33
2017-11-26T03:34:45.878Z,2.29
2017-11-26T03:37:14.203Z,2.24
2017-11-26T03:39:43.337Z,2.17
2017-11-26T03:42:11.679Z,2.14
2017-11-26T03:44:40.805Z,2.13
2017-11-26T03:47:09.135Z,2.13
2017-11-26T03:49:37.489Z,2.16
2017-11-26T03:52:05.806Z,2.16
2017-11-26T03:54:34.955Z,2.18
2017-11-26T03:57:03.320Z,2.42
2017-11-26T03:59:31.631Z,2.51
2017-11-26T04:01:59.975Z,2.38
2017-11-26T04:04:28.321Z,2.35
2017-11-26T04:06:57.405Z,2.31
2017-11-26T04:09:25.719Z,2.36
2017-11-26T04:11:54.031Z,2.39
2017-11-26T04:14:22.338Z,2.54
2017-11-26T04:16:51.476Z,2.49
2017-11-26T04:19:19.785Z,2.57
2017-11-26T04:21:48.123Z,2.64
2017-11-26T04:24:16.426Z,2.58
2017-11-26T04:26:44.740Z,2.40
2017-11-26T04:29:13.064Z,2.36
2017-11-26T04:31:41.386Z,2.30
2017-11-26T04:34:09.695Z,2.31
2017-11-26T04:36:38.016Z,2.21
2017-11-26T04:39:06.357Z,2.20
2017-11-26T04:41:34.691Z,2.25
2017-11-26T04:44:02.990Z,2.19
2017-11-26T04:46:31.297Z,2.20
2017-11-26T04:48:59.599Z,2.18
2017-11-26T04:51:27.932Z,2.10
2017-11-26T04:53:56.995Z,2.13
2017-11-26T04:56:25.311Z,2.05
2017-11-26T04:58:54.423Z,2.01
2017-11-26T05:01:22.730Z,2.01
2017-11-26T05:03:51.039Z,1.98
2017-11-26T05:06:20.606Z,1.97
2017-11-26T05:08:48.934Z,1.92
2017-11-26T05:11:18.013Z,1.97
2017-11-26T05:13:51.239Z,1.97
2017-11-26T05:16:19.561Z,1.92
2017-11-26T05:18:47.882Z,1.87
2017-11-26T05:21:16.959Z,1.89
2017-11-26T05:23:45.295Z,1.84
2017-11-26T05:26:13.606Z,1.82
2017-11-26T05:28:41.930Z,1.74
2017-11-26T05:31:10.263Z,1.68
2017-11-26T05:33:38.577Z,1.65
2017-11-26T05:36:06.879Z,1.60
2017-11-26T05:38:35.207Z,1.56
2017-11-26T05:41:03.522Z,1.56
2017-11-26T05:43:31.844Z,1.54
2017-11-26T05:46:00.159Z,1.55
2017-11-26T05:48:28.470Z,1.50
2017-11-26T05:50:56.807Z,1.50
2017-11-26T05:53:25.887Z,1.47
2017-11-26T05:55:54.970Z,1.47
2017-11-26T05:58:23.291Z,1.49
2017-11-26T06:00:51.649Z,1.50
2017-11-26T06:03:19.979Z,1.47
2017-11-26T06:05:48.303Z,1.43
2017-11-26T06:08:16.607Z,1.45
2017-11-26T06:10:44.898Z,1.49
2017-11-26T06:13:13.217Z,1.47
2017-11-26T06:15:41.527Z,1.39
2017-11-26T06:18:09.847Z,1.41
2017-11-26T06:20:38.159Z,1.41
2017-11-26T06:23:07.245Z,1.45
2017-11-26T06:25:36.325Z,1.56
2017-11-26T06:28:04.640Z,1.69
2017-11-26T06:30:33.712Z,1.73
2017-11-26T06:33:02.035Z,1.69
2017-11-26T06:35:30.342Z,1.65
2017-11-26T06:37:58.654Z,1.50
2017-11-26T06:40:27.715Z,1.45
2017-11-26T06:42:56.049Z,1.35
2017-11-26T06:45:24.357Z,1.25
2017-11-26T06:47:52.675Z,1.19
2017-11-26T06:50:20.979Z,1.23
2017-11-26T06:52:49.303Z,1.25
2017-11-26T06:55:18.372Z,1.28
2017-11-26T06:57:46.690Z,1.32
2017-11-26T07:00:15.003Z,1.30
2017-11-26T07:02:43.311Z,1.33
2017-11-26T07:05:11.632Z,1.35
2017-11-26T07:07:39.963Z,1.40
2017-11-26T07:10:08.281Z,1.39
2017-11-26T07:12:36.601Z,1.44
2017-11-26T07:15:04.930Z,1.50
2017-11-26T07:17:33.269Z,1.49
2017-11-26T07:20:01.580Z,1.55
2017-11-26T07:22:29.928Z,1.57
2017-11-26T07:24:58.239Z,1.64
2017-11-26T07:27:26.555Z,1.77
2017-11-26T07:29:54.865Z,1.75
2017-11-26T07:32:23.181Z,1.80
2017-11-26T07:34:51.512Z,1.83
2017-11-26T07:37:19.838Z,1.86
2017-11-26T07:39:48.932Z,1.93
2017-11-26T07:42:17.256Z,2.02
2017-11-26T07:44:45.556Z,2.05
2017-11-26T07:47:13.862Z,2.14
2017-11-26T07:49:42.183Z,2.18
2017-11-26T07:52:10.487Z,2.18
2017-11-26T07:54:38.803Z,2.18
2017-11-26T07:57:07.906Z,2.24
2017-11-26T07:59:36.989Z,2.30
2017-11-26T08:02:06.063Z,2.28
2017-11-26T08:04:34.378Z,2.29
2017-11-26T08:07:03.450Z,2.37
2017-11-26T08:09:31.774Z,2.37
2017-11-26T08:12:00.065Z,2.49
2017-11-26T08:14:28.370Z,2.57
2017-11-26T08:16:56.677Z,2.71
2017-11-26T08:19:25.759Z,2.83
2017-11-26T08:21:54.061Z,2.99
2017-11-26T08:24:22.401Z,3.06
2017-11-26T08:26:50.723Z,3.24
2017-11-26T08:29:19.043Z,3.18
2017-11-26T08:31:47.350Z,3.46
2017-11-26T08:34:16.447Z,3.66
2017-11-26T08:36:44.775Z,3.61
2017-11-26T08:39:13.087Z,3.83
2017-11-26T08:41:41.405Z,3.87
2017-11-26T08:44:09.714Z,4.08
2017-11-26T08:46:38.027Z,3.98
2017-11-26T08:49:06.349Z,3.89
2017-11-26T08:51:34.671Z,4.13
2017-11-26T08:54:02.983Z,4.26
2017-11-26T08:56:31.296Z,4.32
2017-11-26T08:58:59.605Z,4.37
2017-11-26T09:01:27.951Z,4.29
2017-11-26T09:03:56.283Z,4.45
2017-11-26T09:06:35.350Z,4.21
2017-11-26T09:09:03.672Z,4.47
2017-11-26T09:11:31.975Z,4.57
2017-11-26T09:14:00.290Z,4.52
2017-11-26T09:16:28.593Z,4.33
2017-11-26T09:18:56.911Z,4.42
2017-11-26T09:21:25.238Z,4.54
2017-11-26T09:23:53.541Z,4.57
2017-11-26T09:26:21.838Z,4.39
2017-11-26T09:28:50.914Z,4.39
2017-11-26T09:31:19.980Z,4.40
2017-11-26T09:33:48.286Z,4.54
2017-11-26T09:36:17.358Z,4.53
2017-11-26T09:38:45.663Z,4.52
2017-11-26T09:41:14.735Z,4.62
2017-11-26T09:43:43.115Z,4.73
2017-11-26T09:46:11.418Z,4.72
2017-11-26T09:48:40.502Z,4.71
2017-11-26T09:51:09.590Z,4.79
2017-11-26T09:53:37.903Z,5.11
2017-11-26T09:58:41.529Z,5.24
2017-11-26T10:01:09.846Z,5.17
2017-11-26T10:03:38.190Z,5.29
2017-11-26T10:06:06.492Z,5.18
2017-11-26T10:08:34.818Z,5.31
2017-11-26T10:11:03.890Z,5.35
2017-11-26T10:13:32.195Z,5.61
2017-11-26T10:16:01.267Z,5.92
2017-11-26T10:18:30.361Z,5.87
2017-11-26T10:20:58.707Z,5.81
2017-11-26T10:23:26.996Z,5.95
2017-11-26T10:25:55.302Z,5.81
2017-11-26T10:28:24.366Z,5.84
2017-11-26T10:30:52.686Z,5.83
2017-11-26T10:33:20.998Z,5.93
2017-11-26T10:35:49.335Z,5.98
2017-11-26T10:38:18.458Z,6.02
2017-11-26T10:40:47.499Z,5.91
2017-11-26T10:43:15.822Z,5.77
2017-11-26T10:45:44.117Z,5.78
2017-11-26T10:48:12.426Z,5.78
2017-11-26T10:50:40.726Z,5.92
2017-11-26T10:53:09.799Z,5.99
2017-11-26T10:55:38.102Z,5.90
2017-11-26T10:58:07.171Z,6.04
2017-11-26T11:00:35.494Z,6.19
2017-11-26T11:03:03.804Z,6.48
2017-11-26T11:05:32.099Z,6.31
2017-11-26T11:08:00.447Z,6.11
2017-11-26T11:10:28.754Z,6.29
2017-11-26T11:12:57.086Z,6.32
2017-11-26T11:15:25.378Z,6.46
2017-11-26T11:17:53.691Z,6.45
2017-11-26T11:20:21.998Z,6.64
2017-11-26T11:22:50.302Z,7.05
2017-11-26T11:25:19.935Z,7.15
2017-11-26T11:27:48.228Z,6.76
2017-11-26T11:30:16.566Z,6.91
2017-11-26T11:32:44.915Z,6.64
2017-11-26T11:35:13.222Z,6.79
2017-11-26T11:37:41.559Z,6.75
2017-11-26T11:40:10.634Z,6.86
2017-11-26T11:42:38.981Z,6.93
2017-11-26T11:45:07.290Z,7.08
2017-11-26T11:47:35.598Z,6.89
2017-11-26T11:50:04.760Z,6.81
2017-11-26T11:52:33.737Z,7.07
2017-11-26T11:55:02.197Z,7.09
2017-11-26T11:57:30.541Z,7.32
2017-11-26T11:59:59.656Z,7.19
2017-11-26T12:02:28.758Z,7.09
2017-11-26T12:04:57.134Z,7.06
2017-11-26T12:07:25.511Z,6.85
2017-11-26T12:09:53.993Z,6.89
2017-11-26T12:12:22.397Z,6.89
2017-11-26T12:14:50.849Z,6.89
2017-11-26T12:17:19.189Z,6.81
2017-11-26T12:19:47.531Z,7.06
2017-11-26T12:22:15.885Z,7.21
2017-11-26T12:24:44.258Z,6.90
2017-11-26T12:27:12.635Z,6.74
2017-11-26T12:29:41.115Z,6.66
2017-11-26T12:32:10.209Z,6.64
2017-11-26T12:34:38.600Z,6.69
2017-11-26T12:37:07.016Z,6.68
2017-11-26T12:39:35.343Z,6.62
2017-11-26T12:42:04.530Z,6.69
2017-11-26T12:44:33.735Z,6.64
2017-11-26T12:47:02.055Z,6.80
2017-11-26T12:49:30.409Z,6.70
2017-11-26T12:51:58.781Z,6.69
2017-11-26T12:54:27.189Z,6.80
2017-11-26T12:56:55.501Z,6.69
2017-11-26T12:59:23.839Z,6.67
2017-11-26T13:01:52.220Z,6.57
2017-11-26T13:04:20.549Z,6.42
2017-11-26T13:06:49.696Z,6.49
2017-11-26T13:09:18.072Z,6.50
2017-11-26T13:11:46.385Z,6.52
2017-11-26T13:14:14.817Z,6.41
2017-11-26T13:16:43.128Z,6.32
2017-11-26T13:19:11.460Z,6.33
2017-11-26T13:21:39.823Z,6.33
2017-11-26T13:24:08.891Z,6.29
2017-11-26T13:26:37.211Z,6.26
2017-11-26T13:29:05.512Z,6.21
2017-11-26T13:31:33.842Z,6.22
2017-11-26T13:34:02.943Z,6.21
2017-11-26T13:36:31.277Z,6.19
2017-11-26T13:38:59.592Z,6.29
2017-11-26T13:41:28.690Z,6.28
2017-11-26T13:43:57.763Z,6.34
2017-11-26T13:46:26.089Z,6.22
2017-11-26T13:48:54.431Z,6.24
2017-11-26T13:51:22.750Z,6.34
2017-11-26T13:53:51.059Z,6.46
2017-11-26T13:56:19.406Z,6.31
2017-11-26T13:58:47.714Z,6.35
2017-11-26T14:01:16.183Z,6.30
2017-11-26T14:03:44.530Z,6.36
2017-11-26T14:06:12.870Z,6.43
2017-11-26T14:08:41.187Z,6.32
2017-11-26T14:11:09.503Z,6.37
2017-11-26T14:13:37.843Z,6.37
2017-11-26T14:16:06.210Z,6.29
2017-11-26T14:18:35.286Z,6.22
2017-11-26T14:21:03.598Z,6.17
2017-11-26T14:23:31.902Z,6.11
2017-11-26T14:26:00.218Z,6.11
2017-11-26T14:28:29.295Z,6.11
2017-11-26T14:30:57.626Z,6.02
2017-11-26T14:33:26.003Z,6.07
2017-11-26T14:35:54.311Z,6.06
2017-11-26T14:38:22.643Z,6.05
2017-11-26T14:40:50.982Z,6.05
2017-11-26T14:43:19.312Z,5.99
2017-11-26T14:45:47.619Z,6.00
2017-11-26T14:48:15.920Z,6.02
2017-11-26T14:50:44.245Z,5.96
2017-11-26T14:53:12.543Z,5.93
2017-11-26T14:55:40.900Z,5.91
2017-11-26T14:58:09.235Z,5.90
2017-11-26T15:00:37.572Z,5.85
2017-11-26T15:03:05.884Z,5.83
2017-11-26T15:05:34.203Z,5.84
2017-11-26T15:08:02.547Z,5.81
2017-11-26T15:10:30.927Z,5.73
2017-11-26T15:12:59.254Z,5.74
2017-11-26T15:15:27.583Z,5.73
2017-11-26T15:17:56.383Z,5.74
2017-11-26T15:20:25.517Z,5.79
2017-11-26T15:22:53.839Z,5.78
2017-11-26T15:25:22.175Z,5.77
2017-11-26T15:27:50.495Z,5.71
2017-11-26T15:30:18.837Z,5.64
2017-11-26T15:32:47.181Z,5.64
2017-11-26T15:35:16.295Z,5.74
2017-11-26T15:37:44.647Z,5.63
2017-11-26T15:40:13.718Z,5.65
2017-11-26T15:42:42.048Z,5.58
2017-11-26T15:45:10.346Z,5.61
2017-11-26T15:47:38.712Z,5.60
2017-11-26T15:50:07.064Z,5.65
2017-11-26T15:52:35.382Z,5.66
2017-11-26T15:55:03.742Z,5.65
2017-11-26T15:57:32.039Z,5.62
2017-11-26T16:00:00.365Z,5.65
2017-11-26T16:02:29.486Z,5.63
2017-11-26T16:04:57.800Z,5.61
2017-11-26T16:07:26.116Z,5.67
2017-11-26T16:09:55.217Z,5.50
2017-11-26T16:12:24.311Z,5.64
2017-11-26T16:14:53.384Z,5.64
2017-11-26T16:17:21.714Z,5.63
2017-11-26T16:19:50.851Z,5.61
2017-11-26T16:22:19.151Z,5.59
2017-11-26T16:24:48.252Z,5.59
2017-11-26T16:27:17.318Z,5.55
2017-11-26T16:29:45.642Z,5.54
2017-11-26T16:32:14.114Z,5.56
2017-11-26T16:34:42.432Z,5.52
2017-11-26T16:37:11.057Z,5.44
2017-11-26T16:39:40.130Z,5.45
2017-11-26T16:42:08.478Z,5.37
2017-11-26T16:44:36.802Z,5.47
2017-11-26T16:47:05.121Z,5.47
2017-11-26T16:49:33.468Z,5.43
2017-11-26T16:52:02.612Z,5.49
2017-11-26T16:54:30.933Z,5.49
2017-11-26T16:56:59.239Z,5.40
2017-11-26T16:59:27.550Z,5.41
2017-11-26T17:01:55.858Z,5.44
2017-11-26T17:04:24.982Z,5.40
2017-11-26T17:06:53.302Z,5.37
2017-11-26T17:09:21.608Z,5.37
2017-11-26T17:11:49.934Z,5.33
2017-11-26T17:14:18.235Z,5.28
2017-11-26T17:16:46.559Z,5.38
2017-11-26T17:19:14.873Z,5.30
2017-11-26T17:21:43.182Z,5.18
2017-11-26T17:24:11.498Z,5.15
2017-11-26T17:26:39.823Z,5.17
2017-11-26T17:29:08.195Z,5.15
2017-11-26T17:31:36.547Z,5.17
2017-11-26T17:34:04.869Z,5.25
2017-11-26T17:36:33.204Z,5.29
2017-11-26T17:39:01.547Z,5.34
2017-11-26T17:41:30.645Z,5.25
2017-11-26T17:43:58.970Z,5.24
2017-11-26T17:46:27.286Z,5.21
2017-11-26T17:48:55.618Z,5.20
2017-11-26T17:51:23.997Z,5.22
2017-11-26T17:53:52.927Z,5.20
2017-11-26T17:56:21.241Z,5.25
2017-11-26T17:58:50.356Z,5.28
2017-11-26T18:01:18.671Z,5.25
2017-11-26T18:03:46.973Z,5.25
2017-11-26T18:06:15.307Z,5.26
2017-11-26T18:08:43.631Z,5.18
2017-11-26T18:11:12.716Z,5.26
2017-11-26T18:13:41.034Z,5.19
2017-11-26T18:16:10.154Z,5.18
2017-11-26T18:18:38.488Z,5.08
2017-11-26T18:21:07.576Z,5.14
2017-11-26T18:23:36.645Z,5.23
2017-11-26T18:26:04.981Z,5.13
2017-11-26T18:28:33.276Z,5.03
2017-11-26T18:31:01.610Z,4.99
2017-11-26T18:33:30.675Z,4.99
2017-11-26T18:35:59.039Z,5.06
2017-11-26T18:38:27.350Z,5.06
2017-11-26T18:40:55.652Z,5.08
2017-11-26T18:43:24.001Z,5.14
2017-11-26T18:45:52.296Z,5.11
2017-11-26T18:48:21.380Z,5.15
2017-11-26T18:50:50.471Z,5.15
2017-11-26T18:53:18.769Z,5.08
2017-11-26T18:55:47.107Z,5.13
2017-11-26T18:58:15.423Z,5.13
2017-11-26T19:00:44.523Z,5.08
2017-11-26T19:03:12.828Z,5.06
2017-11-26T19:05:41.142Z,5.00
2017-11-26T19:08:09.461Z,4.91
2017-11-26T19:10:37.758Z,4.87
2017-11-26T19:13:06.109Z,4.93
2017-11-26T19:15:34.475Z,4.89
2017-11-26T19:18:03.547Z,4.79
2017-11-26T19:20:31.886Z,4.73
2017-11-26T19:23:00.197Z,4.69
2017-11-26T19:25:28.535Z,4.67
2017-11-26T19:27:56.886Z,4.69
2017-11-26T19:30:25.979Z,4.75
2017-11-26T19:32:55.061Z,4.81
2017-11-26T19:35:24.137Z,4.79
2017-11-26T19:37:52.480Z,4.76
2017-11-26T19:40:20.774Z,4.72
2017-11-26T19:42:49.070Z,4.85
2017-11-26T19:45:17.378Z,4.98
2017-11-26T19:47:46.459Z,5.05
2017-11-26T19:50:15.551Z,5.09
2017-11-26T19:52:44.645Z,5.06
2017-11-26T19:55:12.961Z,5.13
2017-11-26T19:57:41.266Z,5.18
2017-11-26T20:00:09.563Z,5.18
2017-11-26T20:02:37.898Z,5.19
2017-11-26T20:05:06.240Z,5.19
2017-11-26T20:07:35.364Z,5.25
2017-11-26T20:10:03.730Z,5.30
2017-11-26T20:12:32.795Z,5.33
2017-11-26T20:15:01.132Z,5.31
2017-11-26T20:17:29.429Z,5.36
2017-11-26T20:19:57.734Z,5.32
2017-11-26T20:22:26.058Z,5.30
2017-11-26T20:24:54.374Z,5.35
2017-11-26T20:27:22.729Z,5.33
2017-11-26T20:29:51.024Z,5.29
2017-11-26T20:32:19.347Z,5.26
2017-11-26T20:34:48.405Z,5.27
2017-11-26T20:37:16.710Z,5.26
2017-11-26T20:39:45.833Z,5.25
2017-11-26T20:42:14.143Z,5.22
2017-11-26T20:44:42.457Z,5.27
2017-11-26T20:47:11.523Z,5.16
2017-11-26T20:49:39.854Z,5.10
2017-11-26T20:52:08.193Z,5.10
2017-11-26T20:54:36.499Z,5.15
2017-11-26T20:57:04.832Z,5.17
2017-11-26T20:59:33.154Z,5.19
2017-11-26T21:02:02.226Z,5.11
2017-11-26T21:04:30.520Z,5.14
2017-11-26T21:06:59.644Z,5.15
2017-11-26T21:09:27.950Z,5.17
2017-11-26T21:11:56.259Z,5.20
2017-11-26T21:14:25.360Z,5.23
2017-11-26T21:16:54.438Z,5.26
2017-11-26T21:19:22.796Z,5.29
2017-11-26T21:21:51.148Z,5.26
2017-11-26T21:24:19.456Z,5.28
2017-11-26T21:26:47.835Z,5.15
2017-11-26T21:29:16.143Z,5.08
2017-11-26T21:31:44.473Z,4.77
2017-11-26T21:34:12.783Z,4.72
2017-11-26T21:36:41.102Z,4.75
2017-11-26T21:39:09.410Z,4.67
2017-11-26T21:41:37.769Z,4.62
2017-11-26T21:44:06.086Z,4.55
2017-11-26T21:46:34.413Z,4.52
2017-11-26T21:49:02.745Z,4.60
2017-11-26T21:51:31.059Z,4.67
2017-11-26T21:53:59.390Z,4.61
2017-11-26T21:56:27.699Z,4.56
2017-11-26T21:58:56.807Z,4.52
2017-11-26T22:01:25.189Z,4.68
2017-11-26T22:03:53.490Z,4.67
2017-11-26T22:06:21.804Z,4.68
2017-11-26T22:08:50.143Z,4.70
2017-11-26T22:11:18.467Z,4.71
2017-11-26T22:13:46.787Z,4.59
2017-11-26T22:16:15.142Z,4.48
2017-11-26T22:18:44.216Z,4.39
2017-11-26T22:21:12.528Z,4.30
2017-11-26T22:23:40.846Z,4.26
2017-11-26T22:26:09.841Z,4.29
2017-11-26T22:28:38.239Z,4.30
2017-11-26T22:31:06.547Z,4.33
2017-11-26T22:33:35.638Z,4.46
2017-11-26T22:36:04.748Z,4.44
2017-11-26T22:38:33.086Z,4.51
2017-11-26T22:41:01.411Z,4.28
2017-11-26T22:43:29.730Z,4.20
2017-11-26T22:45:58.038Z,4.06
2017-11-26T22:48:27.187Z,4.05
2017-11-26T22:50:56.302Z,4.05
2017-11-26T22:53:24.631Z,4.09
2017-11-26T22:55:52.934Z,4.06
2017-11-26T22:58:21.246Z,4.11
2017-11-26T23:00:49.545Z,4.16
2017-11-26T23:03:19.448Z,4.14
2017-11-26T23:05:48.514Z,4.13
2017-11-26T23:08:16.856Z,4.10
2017-11-26T23:10:45.177Z,4.16
2017-11-26T23:13:13.492Z,4.18
2017-11-26T23:15:41.818Z,4.26
2017-11-26T23:18:10.133Z,4.32
2017-11-26T23:20:39.238Z,4.41
2017-11-26T23:23:08.298Z,4.35
2017-11-26T23:25:36.620Z,4.36
2017-11-26T23:28:04.944Z,4.39
2017-11-26T23:30:33.258Z,4.34
2017-11-26T23:33:02.338Z,4.42
2017-11-26T23:35:30.662Z,4.46
2017-11-26T23:37:58.978Z,4.47
2017-11-26T23:40:27.300Z,4.51
2017-11-26T23:42:55.635Z,4.47
2017-11-26T23:45:23.943Z,4.50
2017-11-26T23:47:53.002Z,4.58
2017-11-26T23:50:21.335Z,4.64
2017-11-26T23:52:49.665Z,4.62
2017-11-26T23:55:17.984Z,4.63
2017-11-26T23:57:46.309Z,4.63
